Rize — 9HA2781 — position and weather

sailwx.info

Track history (hours):
 
Tides and Currents Weather Stations Pressure Air Temp Water Temp Dewpoint Dewpoint Depression Visibility Wind Speed Wind Dir Waves Ship Positions

Rize

Last reported at 2016-Aug-30 20:31 UTC. Time now 2016-Dec-11 13:52 UTC.
Position N 34°45' W 009°34'.
Warning: this ship's position is months out of date.

Length 229 m; draft 8.7 m.

Type: Cargo ship. MMSI: 215677000.

Date/timePositionNaut miles runAvg speedWind from/ knotsBaromVisibWave heightAir tempDewpointWater temp
2016-Aug-30 20:31N 34°45' W 009°34'3 1.7
2016-Aug-30 18:32N 34°48' W 009°31'2 1.8
2016-Aug-30 17:32N 34°49' W 009°30'2 1.7
2016-Aug-30 16:32N 34°50' W 009°28'2 1.5
2016-Aug-30 15:32N 34°51' W 009°27'1 1.4
2016-Aug-30 14:29N 34°52' W 009°26'1 1.5
2016-Aug-30 13:32N 34°53' W 009°25'4 1.7
2016-Aug-30 11:23N 34°56' W 009°22'2 1.8
2016-Aug-30 10:23N 34°58' W 009°20'2 1.9
2016-Aug-30 09:25N 34°59' W 009°19'2 1.8
2016-Aug-30 08:29N 35°00' W 009°18'2 1.7
2016-Aug-30 07:29N 35°02' W 009°16'2 1.9
2016-Aug-30 06:32N 35°03' W 009°15'2 1.7
2016-Aug-30 05:31N 35°04' W 009°14'2 1.6
2016-Aug-30 04:32N 35°06' W 009°13'2 1.7
2016-Aug-30 03:32N 35°07' W 009°12'2 1.6
2016-Aug-30 02:32N 35°08' W 009°10'2 1.7
2016-Aug-30 01:16N 35°09' W 009°08'2 1.9
2016-Aug-30 00:26N 35°10' W 009°06'2 2.1
2016-Aug-29 23:32N 35°12' W 009°05'2 2.0
2016-Aug-29 22:28N 35°13' W 009°03'2 1.7
2016-Aug-29 21:25N 35°15' W 009°02'2 1.8
2016-Aug-29 20:31N 35°16' W 009°00'2 1.8
2016-Aug-29 19:32N 35°17' W 008°59'2 1.7
2016-Aug-29 18:31N 35°18' W 008°57'2 1.9
2016-Aug-29 17:31N 35°19' W 008°55'2 1.9
2016-Aug-29 16:31N 35°20' W 008°53'2 1.9
2016-Aug-29 15:31N 35°22' W 008°52'2 1.8
2016-Aug-29 14:31N 35°23' W 008°50'2 1.6
2016-Aug-29 13:31N 35°24' W 008°49'2 1.5
2016-Aug-29 12:31N 35°26' W 008°48'1 1.4
2016-Aug-29 11:31N 35°27' W 008°47'1 1.4
2016-Aug-29 10:31N 35°27' W 008°45'1 1.3
2016-Aug-29 09:31N 35°28' W 008°44'1 1.4
2016-Aug-29 08:31N 35°29' W 008°43'1 1.3
2016-Aug-29 07:25N 35°30' W 008°41'6 1.5
2016-Aug-29 03:22N 35°35' W 008°37'1 1.6
2016-Aug-29 02:28N 35°36' W 008°36'2 1.7
2016-Aug-29 01:28N 35°37' W 008°34'1 1.5
2016-Aug-29 00:31N 35°38' W 008°33'2 1.6
2016-Aug-28 23:16N 35°40' W 008°31'1 1.6
2016-Aug-28 22:28N 35°41' W 008°31'2 1.6
2016-Aug-28 21:31N 35°42' W 008°29'2 1.7
2016-Aug-28 20:31N 35°43' W 008°28'2 1.8
2016-Aug-28 19:31N 35°45' W 008°27'2 1.7
2016-Aug-28 18:31N 35°46' W 008°25'2 1.7
2016-Aug-28 17:22N 35°48' W 008°24'14 0.9
2016-Aug-28 02:31N 35°59' W 008°13'2010.2
2016-Aug-28 00:33N 35°59' W 007°49'3310.1
2016-Aug-27 21:18N 35°58' W 007°08'810.2
2016-Aug-27 20:33N 35°58' W 006°59'1110.7
2016-Aug-27 19:33N 35°58' W 006°45'5310.4
2016-Aug-27 14:24N 35°58' W 005°39'7 8.3
2016-Aug-27 13:33N 35°59' W 005°31'10 9.7
2016-Aug-27 12:33N 36°01' W 005°19'115 9.6
2016-Aug-27 00:32N 36°20' W 002°58'2310.1
2016-Aug-26 22:18N 36°24' W 002°31'910.7
2016-Aug-26 21:27N 36°25' W 002°20'5310.5
2016-Aug-26 16:28N 36°33' W 001°15'3510.6
2016-Aug-26 13:08N 36°37' W 000°31'12010.3
2016-Aug-26 01:33N 36°58' E 001°56'1210.4
2016-Aug-26 00:23N 37°01' E 002°11'910.3
2016-Aug-25 23:33N 37°03' E 002°21'40 9.9
2016-Aug-25 19:32N 37°11' E 003°10'2510.5
2016-Aug-25 17:10N 37°17' E 003°40'710.6
2016-Aug-25 16:32N 37°18' E 003°49'1010.5
2016-Aug-25 15:33N 37°20' E 004°01'1310.5
2016-Aug-25 14:19N 37°21' E 004°18'47210.3
2016-Aug-23 16:33N 36°34' E 014°06'1110.7
2016-Aug-23 15:33N 36°31' E 014°18'1310.8
2016-Aug-23 14:19N 36°27' E 014°34'  
Track history (hours):
 
Tides and Currents Weather Stations Pressure Air Temp Water Temp Dewpoint Dewpoint Depression Visibility Wind Speed Wind Dir Waves Ship Positions

Rize

Last reported at 2016-Aug-30 20:31 UTC. Time now 2016-Dec-11 13:52 UTC.
Position N 34°45' W 009°34'.
Warning: this ship's position is months out of date.

Length 229 m; draft 8.7 m.

Type: Cargo ship. MMSI: 215677000.

Date/timePositionNaut miles runAvg speedWind from/ knotsBaromVisibWave heightAir tempDewpointWater temp
2016-Aug-30 20:31N 34°45' W 009°34'3 1.7
2016-Aug-30 18:32N 34°48' W 009°31'2 1.8
2016-Aug-30 17:32N 34°49' W 009°30'2 1.7
2016-Aug-30 16:32N 34°50' W 009°28'2 1.5
2016-Aug-30 15:32N 34°51' W 009°27'1 1.4
2016-Aug-30 14:29N 34°52' W 009°26'1 1.5
2016-Aug-30 13:32N 34°53' W 009°25'4 1.7
2016-Aug-30 11:23N 34°56' W 009°22'2 1.8
2016-Aug-30 10:23N 34°58' W 009°20'2 1.9
2016-Aug-30 09:25N 34°59' W 009°19'2 1.8
2016-Aug-30 08:29N 35°00' W 009°18'2 1.7
2016-Aug-30 07:29N 35°02' W 009°16'2 1.9
2016-Aug-30 06:32N 35°03' W 009°15'2 1.7
2016-Aug-30 05:31N 35°04' W 009°14'2 1.6
2016-Aug-30 04:32N 35°06' W 009°13'2 1.7
2016-Aug-30 03:32N 35°07' W 009°12'2 1.6
2016-Aug-30 02:32N 35°08' W 009°10'2 1.7
2016-Aug-30 01:16N 35°09' W 009°08'2 1.9
2016-Aug-30 00:26N 35°10' W 009°06'2 2.1
2016-Aug-29 23:32N 35°12' W 009°05'2 2.0
2016-Aug-29 22:28N 35°13' W 009°03'2 1.7
2016-Aug-29 21:25N 35°15' W 009°02'2 1.8
2016-Aug-29 20:31N 35°16' W 009°00'2 1.8
2016-Aug-29 19:32N 35°17' W 008°59'2 1.7
2016-Aug-29 18:31N 35°18' W 008°57'2 1.9
2016-Aug-29 17:31N 35°19' W 008°55'2 1.9
2016-Aug-29 16:31N 35°20' W 008°53'2 1.9
2016-Aug-29 15:31N 35°22' W 008°52'2 1.8
2016-Aug-29 14:31N 35°23' W 008°50'2 1.6
2016-Aug-29 13:31N 35°24' W 008°49'2 1.5
2016-Aug-29 12:31N 35°26' W 008°48'1 1.4
2016-Aug-29 11:31N 35°27' W 008°47'1 1.4
2016-Aug-29 10:31N 35°27' W 008°45'1 1.3
2016-Aug-29 09:31N 35°28' W 008°44'1 1.4
2016-Aug-29 08:31N 35°29' W 008°43'1 1.3
2016-Aug-29 07:25N 35°30' W 008°41'6 1.5
2016-Aug-29 03:22N 35°35' W 008°37'1 1.6
2016-Aug-29 02:28N 35°36' W 008°36'2 1.7
2016-Aug-29 01:28N 35°37' W 008°34'1 1.5
2016-Aug-29 00:31N 35°38' W 008°33'2 1.6
2016-Aug-28 23:16N 35°40' W 008°31'1 1.6
2016-Aug-28 22:28N 35°41' W 008°31'2 1.6
2016-Aug-28 21:31N 35°42' W 008°29'2 1.7
2016-Aug-28 20:31N 35°43' W 008°28'2 1.8
2016-Aug-28 19:31N 35°45' W 008°27'2 1.7
2016-Aug-28 18:31N 35°46' W 008°25'2 1.7
2016-Aug-28 17:22N 35°48' W 008°24'14 0.9
2016-Aug-28 02:31N 35°59' W 008°13'2010.2
2016-Aug-28 00:33N 35°59' W 007°49'3310.1
2016-Aug-27 21:18N 35°58' W 007°08'810.2
2016-Aug-27 20:33N 35°58' W 006°59'1110.7
2016-Aug-27 19:33N 35°58' W 006°45'5310.4
2016-Aug-27 14:24N 35°58' W 005°39'7 8.3
2016-Aug-27 13:33N 35°59' W 005°31'10 9.7
2016-Aug-27 12:33N 36°01' W 005°19'115 9.6
2016-Aug-27 00:32N 36°20' W 002°58'2310.1
2016-Aug-26 22:18N 36°24' W 002°31'910.7
2016-Aug-26 21:27N 36°25' W 002°20'5310.5
2016-Aug-26 16:28N 36°33' W 001°15'3510.6
2016-Aug-26 13:08N 36°37' W 000°31'12010.3
2016-Aug-26 01:33N 36°58' E 001°56'1210.4
2016-Aug-26 00:23N 37°01' E 002°11'910.3
2016-Aug-25 23:33N 37°03' E 002°21'40 9.9
2016-Aug-25 19:32N 37°11' E 003°10'2510.5
2016-Aug-25 17:10N 37°17' E 003°40'710.6
2016-Aug-25 16:32N 37°18' E 003°49'1010.5
2016-Aug-25 15:33N 37°20' E 004°01'1310.5
2016-Aug-25 14:19N 37°21' E 004°18'47210.3
2016-Aug-23 16:33N 36°34' E 014°06'1110.7
2016-Aug-23 15:33N 36°31' E 014°18'1310.8
2016-Aug-23 14:19N 36°27' E 014°34'  

Dump ship's entire track history